sensor_id;sensor_type;location;lat;lon;timestamp;temperature;humidity
21627;DHT22;10975;47.872;12.972;2024-02-21T00:00:17;3.00;99.90
21627;DHT22;10975;47.872;12.972;2024-02-21T00:02:44;3.10;99.90
21627;DHT22;10975;47.872;12.972;2024-02-21T00:05:11;3.10;99.90
21627;DHT22;10975;47.872;12.972;2024-02-21T00:07:37;3.20;99.90
21627;DHT22;10975;47.872;12.972;2024-02-21T00:10:05;3.30;99.90
21627;DHT22;10975;47.872;12.972;2024-02-21T00:12:31;3.30;99.90
21627;DHT22;10975;47.872;12.972;2024-02-21T00:14:58;3.30;99.90
21627;DHT22;10975;47.872;12.972;2024-02-21T00:17:25;3.30;99.90
21627;DHT22;10975;47.872;12.972;2024-02-21T00:19:53;3.30;99.90
21627;DHT22;10975;47.872;12.972;2024-02-21T00:22:19;3.30;99.90
21627;DHT22;10975;47.872;12.972;2024-02-21T00:24:46;3.20;99.90
21627;DHT22;10975;47.872;12.972;2024-02-21T00:27:13;3.10;99.90
21627;DHT22;10975;47.872;12.972;2024-02-21T00:29:40;3.20;99.90
21627;DHT22;10975;47.872;12.972;2024-02-21T00:32:07;3.20;99.90
21627;DHT22;10975;47.872;12.972;2024-02-21T00:34:33;3.20;99.90
21627;DHT22;10975;47.872;12.972;2024-02-21T00:37:02;3.20;99.90
21627;DHT22;10975;47.872;12.972;2024-02-21T00:39:28;3.10;99.90
21627;DHT22;10975;47.872;12.972;2024-02-21T00:41:56;3.10;99.90
21627;DHT22;10975;47.872;12.972;2024-02-21T00:44:23;3.00;99.90
21627;DHT22;10975;47.872;12.972;2024-02-21T00:46:50;3.00;99.90
21627;DHT22;10975;47.872;12.972;2024-02-21T00:49:19;3.00;99.90
21627;DHT22;10975;47.872;12.972;2024-02-21T00:51:46;3.00;99.90
21627;DHT22;10975;47.872;12.972;2024-02-21T00:54:13;3.10;99.90
21627;DHT22;10975;47.872;12.972;2024-02-21T00:56:40;3.10;99.90
21627;DHT22;10975;47.872;12.972;2024-02-21T00:59:08;3.20;99.90
21627;DHT22;10975;47.872;12.972;2024-02-21T01:01:35;3.30;99.90
21627;DHT22;10975;47.872;12.972;2024-02-21T01:04:02;3.40;99.90
21627;DHT22;10975;47.872;12.972;2024-02-21T01:06:29;3.40;99.90
21627;DHT22;10975;47.872;12.972;2024-02-21T01:08:56;3.50;99.90
21627;DHT22;10975;47.872;12.972;2024-02-21T01:11:22;3.50;99.90
21627;DHT22;10975;47.872;12.972;2024-02-21T01:13:49;3.50;99.90
21627;DHT22;10975;47.872;12.972;2024-02-21T01:16:16;3.40;99.90
21627;DHT22;10975;47.872;12.972;2024-02-21T01:18:43;3.40;99.90
21627;DHT22;10975;47.872;12.972;2024-02-21T01:21:10;3.40;99.90
21627;DHT22;10975;47.872;12.972;2024-02-21T01:23:37;3.40;99.90
21627;DHT22;10975;47.872;12.972;2024-02-21T01:26:04;3.40;99.90
21627;DHT22;10975;47.872;12.972;2024-02-21T01:28:31;3.40;99.90
21627;DHT22;10975;47.872;12.972;2024-02-21T01:30:58;3.40;99.90
21627;DHT22;10975;47.872;12.972;2024-02-21T01:33:25;3.40;99.90
21627;DHT22;10975;47.872;12.972;2024-02-21T01:35:52;3.50;99.90
21627;DHT22;10975;47.872;12.972;2024-02-21T01:38:19;3.50;99.90
21627;DHT22;10975;47.872;12.972;2024-02-21T01:40:46;3.50;99.90
21627;DHT22;10975;47.872;12.972;2024-02-21T01:43:18;3.60;99.90
21627;DHT22;10975;47.872;12.972;2024-02-21T01:45:52;3.50;99.90
21627;DHT22;10975;47.872;12.972;2024-02-21T01:48:19;3.50;99.90
21627;DHT22;10975;47.872;12.972;2024-02-21T01:50:47;3.60;99.90
21627;DHT22;10975;47.872;12.972;2024-02-21T01:53:21;3.60;99.90
21627;DHT22;10975;47.872;12.972;2024-02-21T01:55:49;3.60;99.90
21627;DHT22;10975;47.872;12.972;2024-02-21T01:58:16;3.60;99.90
21627;DHT22;10975;47.872;12.972;2024-02-21T02:00:45;3.50;99.90
21627;DHT22;10975;47.872;12.972;2024-02-21T02:03:13;3.40;99.90
21627;DHT22;10975;47.872;12.972;2024-02-21T02:05:48;3.40;99.90
21627;DHT22;10975;47.872;12.972;2024-02-21T02:08:19;3.40;99.90
21627;DHT22;10975;47.872;12.972;2024-02-21T02:10:46;3.40;99.90
21627;DHT22;10975;47.872;12.972;2024-02-21T02:13:13;3.50;99.90
21627;DHT22;10975;47.872;12.972;2024-02-21T02:15:45;3.60;99.90
21627;DHT22;10975;47.872;12.972;2024-02-21T02:18:13;3.60;99.90
21627;DHT22;10975;47.872;12.972;2024-02-21T02:20:40;3.60;99.90
21627;DHT22;10975;47.872;12.972;2024-02-21T02:25:48;3.70;99.90
21627;DHT22;10975;47.872;12.972;2024-02-21T02:28:19;3.70;99.90
21627;DHT22;10975;47.872;12.972;2024-02-21T02:30:46;3.70;99.90
21627;DHT22;10975;47.872;12.972;2024-02-21T02:33:13;3.60;99.90
21627;DHT22;10975;47.872;12.972;2024-02-21T02:35:40;3.60;99.90
21627;DHT22;10975;47.872;12.972;2024-02-21T02:38:07;3.50;99.90
21627;DHT22;10975;47.872;12.972;2024-02-21T02:40:34;3.60;99.90
21627;DHT22;10975;47.872;12.972;2024-02-21T02:43:01;3.60;99.90
21627;DHT22;10975;47.872;12.972;2024-02-21T02:45:28;3.60;99.90
21627;DHT22;10975;47.872;12.972;2024-02-21T02:47:55;3.70;99.90
21627;DHT22;10975;47.872;12.972;2024-02-21T02:50:24;3.70;99.90
21627;DHT22;10975;47.872;12.972;2024-02-21T02:52:52;3.70;99.90
21627;DHT22;10975;47.872;12.972;2024-02-21T02:55:19;3.80;99.90
21627;DHT22;10975;47.872;12.972;2024-02-21T02:57:46;3.80;99.90
21627;DHT22;10975;47.872;12.972;2024-02-21T03:00:14;3.80;99.90
21627;DHT22;10975;47.872;12.972;2024-02-21T03:02:42;3.70;99.90
21627;DHT22;10975;47.872;12.972;2024-02-21T03:05:17;3.80;99.90
21627;DHT22;10975;47.872;12.972;2024-02-21T03:07:45;3.80;99.90
21627;DHT22;10975;47.872;12.972;2024-02-21T03:10:13;3.80;99.90
21627;DHT22;10975;47.872;12.972;2024-02-21T03:12:40;3.90;99.90
21627;DHT22;10975;47.872;12.972;2024-02-21T03:15:07;3.90;99.90
21627;DHT22;10975;47.872;12.972;2024-02-21T03:17:34;3.90;99.90
21627;DHT22;10975;47.872;12.972;2024-02-21T03:20:02;3.90;99.90
21627;DHT22;10975;47.872;12.972;2024-02-21T03:22:32;3.90;99.90
21627;DHT22;10975;47.872;12.972;2024-02-21T03:24:59;3.90;99.90
21627;DHT22;10975;47.872;12.972;2024-02-21T03:27:26;3.90;99.90
21627;DHT22;10975;47.872;12.972;2024-02-21T03:29:53;3.80;99.90
21627;DHT22;10975;47.872;12.972;2024-02-21T03:32:20;3.90;99.90
21627;DHT22;10975;47.872;12.972;2024-02-21T03:34:47;3.90;99.90
21627;DHT22;10975;47.872;12.972;2024-02-21T03:37:14;3.90;99.90
21627;DHT22;10975;47.872;12.972;2024-02-21T03:39:41;3.80;99.90
21627;DHT22;10975;47.872;12.972;2024-02-21T03:42:08;3.80;99.90
21627;DHT22;10975;47.872;12.972;2024-02-21T03:44:35;3.80;99.90
21627;DHT22;10975;47.872;12.972;2024-02-21T03:47:02;3.80;99.90
21627;DHT22;10975;47.872;12.972;2024-02-21T03:49:29;3.90;99.90
21627;DHT22;10975;47.872;12.972;2024-02-21T03:51:56;3.90;99.90
21627;DHT22;10975;47.872;12.972;2024-02-21T03:54:23;3.90;99.90
21627;DHT22;10975;47.872;12.972;2024-02-21T03:56:50;3.90;99.90
21627;DHT22;10975;47.872;12.972;2024-02-21T03:59:17;3.90;99.90
21627;DHT22;10975;47.872;12.972;2024-02-21T04:01:44;3.90;99.90
21627;DHT22;10975;47.872;12.972;2024-02-21T04:04:11;3.90;99.90
21627;DHT22;10975;47.872;12.972;2024-02-21T04:06:49;3.90;99.90
21627;DHT22;10975;47.872;12.972;2024-02-21T04:09:16;3.90;99.90
21627;DHT22;10975;47.872;12.972;2024-02-21T04:11:43;3.80;99.90
21627;DHT22;10975;47.872;12.972;2024-02-21T04:14:10;3.80;99.90
21627;DHT22;10975;47.872;12.972;2024-02-21T04:16:40;3.90;99.90
21627;DHT22;10975;47.872;12.972;2024-02-21T04:19:07;3.90;99.90
21627;DHT22;10975;47.872;12.972;2024-02-21T04:21:35;4.00;99.90
21627;DHT22;10975;47.872;12.972;2024-02-21T04:24:03;4.10;99.90
21627;DHT22;10975;47.872;12.972;2024-02-21T04:26:33;4.20;99.90
21627;DHT22;10975;47.872;12.972;2024-02-21T04:29:00;4.20;99.90
21627;DHT22;10975;47.872;12.972;2024-02-21T04:31:27;4.20;99.90
21627;DHT22;10975;47.872;12.972;2024-02-21T04:33:54;4.30;99.90
21627;DHT22;10975;47.872;12.972;2024-02-21T04:36:21;4.20;99.90
21627;DHT22;10975;47.872;12.972;2024-02-21T04:38:47;4.30;99.90
21627;DHT22;10975;47.872;12.972;2024-02-21T04:41:15;4.20;99.90
21627;DHT22;10975;47.872;12.972;2024-02-21T04:43:42;4.20;99.90
21627;DHT22;10975;47.872;12.972;2024-02-21T04:46:09;4.10;99.90
21627;DHT22;10975;47.872;12.972;2024-02-21T04:48:36;4.10;99.90
21627;DHT22;10975;47.872;12.972;2024-02-21T04:51:03;4.10;99.90
21627;DHT22;10975;47.872;12.972;2024-02-21T04:53:30;4.10;99.90
21627;DHT22;10975;47.872;12.972;2024-02-21T04:55:57;4.10;99.90
21627;DHT22;10975;47.872;12.972;2024-02-21T04:58:23;4.10;99.90
21627;DHT22;10975;47.872;12.972;2024-02-21T05:00:50;4.10;99.90
21627;DHT22;10975;47.872;12.972;2024-02-21T05:03:17;4.10;99.90
21627;DHT22;10975;47.872;12.972;2024-02-21T05:05:44;4.10;99.90
21627;DHT22;10975;47.872;12.972;2024-02-21T05:08:11;4.10;99.90
21627;DHT22;10975;47.872;12.972;2024-02-21T05:10:38;4.10;99.90
21627;DHT22;10975;47.872;12.972;2024-02-21T05:13:04;4.20;99.90
21627;DHT22;10975;47.872;12.972;2024-02-21T05:15:31;4.20;99.90
21627;DHT22;10975;47.872;12.972;2024-02-21T05:17:58;4.20;99.90
21627;DHT22;10975;47.872;12.972;2024-02-21T05:20:25;4.10;99.90
21627;DHT22;10975;47.872;12.972;2024-02-21T05:22:52;4.10;99.90
21627;DHT22;10975;47.872;12.972;2024-02-21T05:25:19;4.20;99.90
21627;DHT22;10975;47.872;12.972;2024-02-21T05:27:46;4.10;99.90
21627;DHT22;10975;47.872;12.972;2024-02-21T05:30:12;4.20;99.90
21627;DHT22;10975;47.872;12.972;2024-02-21T05:32:39;4.20;99.90
21627;DHT22;10975;47.872;12.972;2024-02-21T05:35:07;4.10;99.90
21627;DHT22;10975;47.872;12.972;2024-02-21T05:37:34;4.10;99.90
21627;DHT22;10975;47.872;12.972;2024-02-21T05:40:01;4.00;99.90
21627;DHT22;10975;47.872;12.972;2024-02-21T05:42:27;4.10;99.90
21627;DHT22;10975;47.872;12.972;2024-02-21T05:44:54;4.10;99.90
21627;DHT22;10975;47.872;12.972;2024-02-21T05:47:21;4.10;99.90
21627;DHT22;10975;47.872;12.972;2024-02-21T05:49:48;4.10;99.90
21627;DHT22;10975;47.872;12.972;2024-02-21T05:52:15;4.00;99.90
21627;DHT22;10975;47.872;12.972;2024-02-21T05:54:42;4.10;99.90
21627;DHT22;10975;47.872;12.972;2024-02-21T05:57:09;4.20;99.90
21627;DHT22;10975;47.872;12.972;2024-02-21T05:59:38;4.20;99.90
21627;DHT22;10975;47.872;12.972;2024-02-21T06:02:07;4.20;99.90
21627;DHT22;10975;47.872;12.972;2024-02-21T06:04:34;4.20;99.90
21627;DHT22;10975;47.872;12.972;2024-02-21T06:07:01;4.30;99.90
21627;DHT22;10975;47.872;12.972;2024-02-21T06:09:28;4.30;99.90
21627;DHT22;10975;47.872;12.972;2024-02-21T06:11:55;4.30;99.90
21627;DHT22;10975;47.872;12.972;2024-02-21T06:14:22;4.40;99.90
21627;DHT22;10975;47.872;12.972;2024-02-21T06:16:49;4.40;99.90
21627;DHT22;10975;47.872;12.972;2024-02-21T06:19:16;4.40;99.90
21627;DHT22;10975;47.872;12.972;2024-02-21T06:21:43;4.40;99.90
21627;DHT22;10975;47.872;12.972;2024-02-21T06:24:10;4.40;99.90
21627;DHT22;10975;47.872;12.972;2024-02-21T06:26:40;4.50;99.90
21627;DHT22;10975;47.872;12.972;2024-02-21T06:29:06;4.50;99.90
21627;DHT22;10975;47.872;12.972;2024-02-21T06:31:35;4.60;99.90
21627;DHT22;10975;47.872;12.972;2024-02-21T06:34:02;4.60;99.90
21627;DHT22;10975;47.872;12.972;2024-02-21T06:36:29;4.60;99.90
21627;DHT22;10975;47.872;12.972;2024-02-21T06:38:56;4.70;99.90
21627;DHT22;10975;47.872;12.972;2024-02-21T06:41:23;4.70;99.90
21627;DHT22;10975;47.872;12.972;2024-02-21T06:43:50;4.80;99.90
21627;DHT22;10975;47.872;12.972;2024-02-21T06:46:27;4.80;99.90
21627;DHT22;10975;47.872;12.972;2024-02-21T06:49:01;4.90;99.90
21627;DHT22;10975;47.872;12.972;2024-02-21T06:51:28;4.90;99.90
21627;DHT22;10975;47.872;12.972;2024-02-21T06:53:55;5.00;99.90
21627;DHT22;10975;47.872;12.972;2024-02-21T06:56:25;5.00;99.90
21627;DHT22;10975;47.872;12.972;2024-02-21T06:58:58;5.10;99.90
21627;DHT22;10975;47.872;12.972;2024-02-21T07:01:24;5.10;99.90
21627;DHT22;10975;47.872;12.972;2024-02-21T07:03:51;5.10;99.90
21627;DHT22;10975;47.872;12.972;2024-02-21T07:06:18;5.20;99.90
21627;DHT22;10975;47.872;12.972;2024-02-21T07:08:45;5.20;99.90
21627;DHT22;10975;47.872;12.972;2024-02-21T07:11:12;5.20;99.90
21627;DHT22;10975;47.872;12.972;2024-02-21T07:13:40;5.20;99.90
21627;DHT22;10975;47.872;12.972;2024-02-21T07:16:07;5.10;99.90
21627;DHT22;10975;47.872;12.972;2024-02-21T07:18:34;5.10;99.90
21627;DHT22;10975;47.872;12.972;2024-02-21T07:21:01;5.00;99.90
21627;DHT22;10975;47.872;12.972;2024-02-21T07:23:28;5.00;99.90
21627;DHT22;10975;47.872;12.972;2024-02-21T07:25:55;4.90;99.90
21627;DHT22;10975;47.872;12.972;2024-02-21T07:28:22;4.90;99.90
21627;DHT22;10975;47.872;12.972;2024-02-21T07:30:49;4.90;99.90
21627;DHT22;10975;47.872;12.972;2024-02-21T07:33:15;4.90;99.90
21627;DHT22;10975;47.872;12.972;2024-02-21T07:35:42;5.00;99.90
21627;DHT22;10975;47.872;12.972;2024-02-21T07:38:11;5.00;99.90
21627;DHT22;10975;47.872;12.972;2024-02-21T07:40:39;5.10;99.90
21627;DHT22;10975;47.872;12.972;2024-02-21T07:43:06;5.20;99.90
21627;DHT22;10975;47.872;12.972;2024-02-21T07:45:33;5.20;99.90
21627;DHT22;10975;47.872;12.972;2024-02-21T07:48:00;5.40;99.90
21627;DHT22;10975;47.872;12.972;2024-02-21T07:50:27;5.50;99.90
21627;DHT22;10975;47.872;12.972;2024-02-21T07:52:54;5.70;99.90
21627;DHT22;10975;47.872;12.972;2024-02-21T07:55:21;5.80;99.90
21627;DHT22;10975;47.872;12.972;2024-02-21T07:57:48;5.90;99.90
21627;DHT22;10975;47.872;12.972;2024-02-21T08:00:16;6.00;99.90
21627;DHT22;10975;47.872;12.972;2024-02-21T08:02:48;6.00;99.90
21627;DHT22;10975;47.872;12.972;2024-02-21T08:05:15;6.10;99.90
21627;DHT22;10975;47.872;12.972;2024-02-21T08:07:42;6.20;99.90
21627;DHT22;10975;47.872;12.972;2024-02-21T08:10:09;6.20;99.90
21627;DHT22;10975;47.872;12.972;2024-02-21T08:12:36;6.30;99.90
21627;DHT22;10975;47.872;12.972;2024-02-21T08:15:03;6.20;99.90
21627;DHT22;10975;47.872;12.972;2024-02-21T08:17:30;6.10;99.90
21627;DHT22;10975;47.872;12.972;2024-02-21T08:19:58;6.10;99.90
21627;DHT22;10975;47.872;12.972;2024-02-21T08:22:25;6.10;99.90
21627;DHT22;10975;47.872;12.972;2024-02-21T08:24:53;6.10;99.90
21627;DHT22;10975;47.872;12.972;2024-02-21T08:27:20;6.20;99.90
21627;DHT22;10975;47.872;12.972;2024-02-21T08:29:47;6.30;99.90
21627;DHT22;10975;47.872;12.972;2024-02-21T08:32:14;6.40;99.90
21627;DHT22;10975;47.872;12.972;2024-02-21T08:34:41;6.60;99.90
21627;DHT22;10975;47.872;12.972;2024-02-21T08:37:08;6.70;99.90
21627;DHT22;10975;47.872;12.972;2024-02-21T08:39:34;6.90;99.90
21627;DHT22;10975;47.872;12.972;2024-02-21T08:42:01;7.00;99.90
21627;DHT22;10975;47.872;12.972;2024-02-21T08:44:28;7.10;99.90
21627;DHT22;10975;47.872;12.972;2024-02-21T08:46:55;7.20;99.90
21627;DHT22;10975;47.872;12.972;2024-02-21T08:49:23;7.30;99.90
21627;DHT22;10975;47.872;12.972;2024-02-21T08:52:00;7.40;99.90
21627;DHT22;10975;47.872;12.972;2024-02-21T08:54:27;7.50;99.90
21627;DHT22;10975;47.872;12.972;2024-02-21T08:56:54;7.60;99.90
21627;DHT22;10975;47.872;12.972;2024-02-21T08:59:21;7.60;99.90
21627;DHT22;10975;47.872;12.972;2024-02-21T09:01:48;7.70;99.90
21627;DHT22;10975;47.872;12.972;2024-02-21T09:04:15;7.70;99.90
21627;DHT22;10975;47.872;12.972;2024-02-21T09:06:42;7.80;99.90
21627;DHT22;10975;47.872;12.972;2024-02-21T09:09:09;7.80;99.90
21627;DHT22;10975;47.872;12.972;2024-02-21T09:11:37;7.90;99.90
21627;DHT22;10975;47.872;12.972;2024-02-21T09:14:06;8.00;99.90
21627;DHT22;10975;47.872;12.972;2024-02-21T09:16:33;8.00;99.90
21627;DHT22;10975;47.872;12.972;2024-02-21T09:19:00;8.10;99.90
21627;DHT22;10975;47.872;12.972;2024-02-21T09:21:27;8.30;99.90
21627;DHT22;10975;47.872;12.972;2024-02-21T09:23:55;8.40;99.90
21627;DHT22;10975;47.872;12.972;2024-02-21T09:26:26;8.60;99.90
21627;DHT22;10975;47.872;12.972;2024-02-21T09:28:53;8.70;99.90
21627;DHT22;10975;47.872;12.972;2024-02-21T09:31:20;8.80;99.90
21627;DHT22;10975;47.872;12.972;2024-02-21T09:33:47;8.90;99.90
21627;DHT22;10975;47.872;12.972;2024-02-21T09:36:14;9.10;99.90
21627;DHT22;10975;47.872;12.972;2024-02-21T09:38:41;9.20;99.90
21627;DHT22;10975;47.872;12.972;2024-02-21T09:41:18;9.30;99.90
21627;DHT22;10975;47.872;12.972;2024-02-21T09:43:51;9.50;99.90
21627;DHT22;10975;47.872;12.972;2024-02-21T09:46:27;9.50;99.90
21627;DHT22;10975;47.872;12.972;2024-02-21T09:48:58;9.50;99.90
21627;DHT22;10975;47.872;12.972;2024-02-21T09:51:32;9.60;99.90
21627;DHT22;10975;47.872;12.972;2024-02-21T09:54:02;9.50;99.90
21627;DHT22;10975;47.872;12.972;2024-02-21T09:56:42;9.60;99.90
21627;DHT22;10975;47.872;12.972;2024-02-21T09:59:09;9.60;99.90
21627;DHT22;10975;47.872;12.972;2024-02-21T10:01:37;9.60;99.90
21627;DHT22;10975;47.872;12.972;2024-02-21T10:04:05;9.70;99.90
21627;DHT22;10975;47.872;12.972;2024-02-21T10:06:32;9.60;99.90
21627;DHT22;10975;47.872;12.972;2024-02-21T10:08:59;9.50;99.90
21627;DHT22;10975;47.872;12.972;2024-02-21T10:11:26;9.50;99.90
21627;DHT22;10975;47.872;12.972;2024-02-21T10:14:06;9.50;99.90
21627;DHT22;10975;47.872;12.972;2024-02-21T10:16:34;9.50;99.90
21627;DHT22;10975;47.872;12.972;2024-02-21T10:19:01;9.50;99.90
21627;DHT22;10975;47.872;12.972;2024-02-21T10:21:30;9.60;99.90
21627;DHT22;10975;47.872;12.972;2024-02-21T10:23:57;9.70;99.90
21627;DHT22;10975;47.872;12.972;2024-02-21T10:26:24;9.80;99.90
21627;DHT22;10975;47.872;12.972;2024-02-21T10:28:51;9.90;99.90
21627;DHT22;10975;47.872;12.972;2024-02-21T10:31:26;10.00;99.90
21627;DHT22;10975;47.872;12.972;2024-02-21T10:33:58;10.10;99.90
21627;DHT22;10975;47.872;12.972;2024-02-21T10:36:26;10.20;99.90
21627;DHT22;10975;47.872;12.972;2024-02-21T10:38:53;10.30;99.90
21627;DHT22;10975;47.872;12.972;2024-02-21T10:41:24;10.40;99.90
21627;DHT22;10975;47.872;12.972;2024-02-21T10:44:11;10.40;99.90
21627;DHT22;10975;47.872;12.972;2024-02-21T10:46:38;10.50;99.90
21627;DHT22;10975;47.872;12.972;2024-02-21T10:49:22;10.50;99.90
21627;DHT22;10975;47.872;12.972;2024-02-21T10:51:55;10.50;99.90
21627;DHT22;10975;47.872;12.972;2024-02-21T10:54:53;10.50;99.90
21627;DHT22;10975;47.872;12.972;2024-02-21T10:57:23;10.60;99.90
21627;DHT22;10975;47.872;12.972;2024-02-21T10:59:51;10.60;99.90
21627;DHT22;10975;47.872;12.972;2024-02-21T11:02:19;10.60;99.90
21627;DHT22;10975;47.872;12.972;2024-02-21T11:04:47;10.70;99.90
21627;DHT22;10975;47.872;12.972;2024-02-21T11:07:16;10.60;99.90
21627;DHT22;10975;47.872;12.972;2024-02-21T11:09:51;10.60;99.90
21627;DHT22;10975;47.872;12.972;2024-02-21T11:12:22;10.50;99.90
21627;DHT22;10975;47.872;12.972;2024-02-21T11:14:49;10.30;99.90
21627;DHT22;10975;47.872;12.972;2024-02-21T11:17:20;10.20;99.90
21627;DHT22;10975;47.872;12.972;2024-02-21T11:19:53;10.20;99.90
21627;DHT22;10975;47.872;12.972;2024-02-21T11:22:20;10.20;99.90
21627;DHT22;10975;47.872;12.972;2024-02-21T11:24:49;10.10;99.90
21627;DHT22;10975;47.872;12.972;2024-02-21T11:27:19;10.10;99.90
21627;DHT22;10975;47.872;12.972;2024-02-21T11:29:48;10.20;99.90
21627;DHT22;10975;47.872;12.972;2024-02-21T11:32:19;10.20;99.90
21627;DHT22;10975;47.872;12.972;2024-02-21T11:34:57;10.20;99.90
21627;DHT22;10975;47.872;12.972;2024-02-21T11:37:30;10.30;99.90
21627;DHT22;10975;47.872;12.972;2024-02-21T11:39:57;10.30;99.90
21627;DHT22;10975;47.872;12.972;2024-02-21T11:42:27;10.30;99.90
21627;DHT22;10975;47.872;12.972;2024-02-21T11:44:59;10.30;99.90
21627;DHT22;10975;47.872;12.972;2024-02-21T11:47:28;10.40;99.90
21627;DHT22;10975;47.872;12.972;2024-02-21T11:49:56;10.40;99.90
21627;DHT22;10975;47.872;12.972;2024-02-21T11:52:24;10.50;99.90
21627;DHT22;10975;47.872;12.972;2024-02-21T11:54:53;10.50;99.90
21627;DHT22;10975;47.872;12.972;2024-02-21T11:57:22;10.50;99.90
21627;DHT22;10975;47.872;12.972;2024-02-21T11:59:51;10.50;99.90
21627;DHT22;10975;47.872;12.972;2024-02-21T12:02:23;10.50;99.90
21627;DHT22;10975;47.872;12.972;2024-02-21T12:04:50;10.50;99.90
21627;DHT22;10975;47.872;12.972;2024-02-21T12:07:18;10.60;99.90
21627;DHT22;10975;47.872;12.972;2024-02-21T12:09:45;10.60;99.90
21627;DHT22;10975;47.872;12.972;2024-02-21T12:12:12;10.70;99.90
21627;DHT22;10975;47.872;12.972;2024-02-21T12:14:41;10.70;99.90
21627;DHT22;10975;47.872;12.972;2024-02-21T12:17:07;10.80;99.90
21627;DHT22;10975;47.872;12.972;2024-02-21T12:19:34;10.90;99.90
21627;DHT22;10975;47.872;12.972;2024-02-21T12:22:01;10.90;99.90
21627;DHT22;10975;47.872;12.972;2024-02-21T12:24:33;11.00;99.90
21627;DHT22;10975;47.872;12.972;2024-02-21T12:27:00;11.00;99.90
21627;DHT22;10975;47.872;12.972;2024-02-21T12:29:30;11.10;99.90
21627;DHT22;10975;47.872;12.972;2024-02-21T12:31:57;11.20;99.90
21627;DHT22;10975;47.872;12.972;2024-02-21T12:34:24;11.20;99.90
21627;DHT22;10975;47.872;12.972;2024-02-21T12:36:54;11.20;99.90
21627;DHT22;10975;47.872;12.972;2024-02-21T12:39:21;11.30;99.90
21627;DHT22;10975;47.872;12.972;2024-02-21T12:41:47;11.20;99.90
21627;DHT22;10975;47.872;12.972;2024-02-21T12:44:15;11.20;99.90
21627;DHT22;10975;47.872;12.972;2024-02-21T12:46:43;11.10;99.90
21627;DHT22;10975;47.872;12.972;2024-02-21T12:49:10;11.20;99.90
21627;DHT22;10975;47.872;12.972;2024-02-21T12:51:37;11.20;99.90
21627;DHT22;10975;47.872;12.972;2024-02-21T12:54:04;11.30;99.90
21627;DHT22;10975;47.872;12.972;2024-02-21T12:56:31;11.30;99.90
21627;DHT22;10975;47.872;12.972;2024-02-21T12:58:58;11.30;99.90
21627;DHT22;10975;47.872;12.972;2024-02-21T13:01:25;11.30;99.90
21627;DHT22;10975;47.872;12.972;2024-02-21T13:03:53;11.40;99.90
21627;DHT22;10975;47.872;12.972;2024-02-21T13:06:20;11.30;99.90
21627;DHT22;10975;47.872;12.972;2024-02-21T13:08:47;11.30;99.90
21627;DHT22;10975;47.872;12.972;2024-02-21T13:11:14;11.40;99.90
21627;DHT22;10975;47.872;12.972;2024-02-21T13:13:41;11.40;99.90
21627;DHT22;10975;47.872;12.972;2024-02-21T13:16:08;11.40;99.90
21627;DHT22;10975;47.872;12.972;2024-02-21T13:18:36;11.40;99.90
21627;DHT22;10975;47.872;12.972;2024-02-21T13:21:05;11.40;99.90
21627;DHT22;10975;47.872;12.972;2024-02-21T13:23:32;11.40;99.90
21627;DHT22;10975;47.872;12.972;2024-02-21T13:25:59;11.40;99.90
21627;DHT22;10975;47.872;12.972;2024-02-21T13:28:26;11.50;99.90
21627;DHT22;10975;47.872;12.972;2024-02-21T13:30:54;11.50;99.90
21627;DHT22;10975;47.872;12.972;2024-02-21T13:33:21;11.50;99.90
21627;DHT22;10975;47.872;12.972;2024-02-21T13:35:48;11.40;99.90
21627;DHT22;10975;47.872;12.972;2024-02-21T13:38:14;11.40;99.90
21627;DHT22;10975;47.872;12.972;2024-02-21T13:40:41;11.50;99.90
21627;DHT22;10975;47.872;12.972;2024-02-21T13:43:09;11.50;99.90
21627;DHT22;10975;47.872;12.972;2024-02-21T13:45:37;11.50;99.90
21627;DHT22;10975;47.872;12.972;2024-02-21T13:48:05;11.50;99.90
21627;DHT22;10975;47.872;12.972;2024-02-21T13:50:33;11.50;99.90
21627;DHT22;10975;47.872;12.972;2024-02-21T13:53:09;11.50;99.90
21627;DHT22;10975;47.872;12.972;2024-02-21T13:55:37;11.50;99.90
21627;DHT22;10975;47.872;12.972;2024-02-21T13:58:03;11.50;99.90
21627;DHT22;10975;47.872;12.972;2024-02-21T14:00:30;11.50;99.90
21627;DHT22;10975;47.872;12.972;2024-02-21T14:02:59;11.60;99.90
21627;DHT22;10975;47.872;12.972;2024-02-21T14:05:27;11.60;99.90
21627;DHT22;10975;47.872;12.972;2024-02-21T14:07:54;11.60;99.90
21627;DHT22;10975;47.872;12.972;2024-02-21T14:10:22;11.60;99.90
21627;DHT22;10975;47.872;12.972;2024-02-21T14:12:49;11.50;99.90
21627;DHT22;10975;47.872;12.972;2024-02-21T14:15:16;11.60;99.90
21627;DHT22;10975;47.872;12.972;2024-02-21T14:17:43;11.60;99.90
21627;DHT22;10975;47.872;12.972;2024-02-21T14:20:10;11.70;99.90
21627;DHT22;10975;47.872;12.972;2024-02-21T14:22:42;11.70;99.90
21627;DHT22;10975;47.872;12.972;2024-02-21T14:25:09;11.70;99.90
21627;DHT22;10975;47.872;12.972;2024-02-21T14:27:36;11.80;99.90
21627;DHT22;10975;47.872;12.972;2024-02-21T14:30:03;11.80;99.90
21627;DHT22;10975;47.872;12.972;2024-02-21T14:32:30;11.70;99.90
21627;DHT22;10975;47.872;12.972;2024-02-21T14:34:57;11.70;99.90
21627;DHT22;10975;47.872;12.972;2024-02-21T14:37:28;11.70;99.90
21627;DHT22;10975;47.872;12.972;2024-02-21T14:39:55;11.70;99.90
21627;DHT22;10975;47.872;12.972;2024-02-21T14:56:58;11.70;99.90
21627;DHT22;10975;47.872;12.972;2024-02-21T14:59:24;11.60;99.90
21627;DHT22;10975;47.872;12.972;2024-02-21T15:02:00;11.60;99.90
21627;DHT22;10975;47.872;12.972;2024-02-21T15:04:27;11.60;99.90
21627;DHT22;10975;47.872;12.972;2024-02-21T15:06:54;11.50;99.90
21627;DHT22;10975;47.872;12.972;2024-02-21T15:09:21;11.40;99.90
21627;DHT22;10975;47.872;12.972;2024-02-21T15:11:48;11.30;99.90
21627;DHT22;10975;47.872;12.972;2024-02-21T15:14:14;11.20;99.90
21627;DHT22;10975;47.872;12.972;2024-02-21T15:16:41;11.20;99.90
21627;DHT22;10975;47.872;12.972;2024-02-21T15:19:08;11.10;99.90
21627;DHT22;10975;47.872;12.972;2024-02-21T15:21:35;11.10;99.90
21627;DHT22;10975;47.872;12.972;2024-02-21T15:24:02;11.00;99.90
21627;DHT22;10975;47.872;12.972;2024-02-21T15:26:30;11.00;99.90
21627;DHT22;10975;47.872;12.972;2024-02-21T15:28:57;11.00;99.90
21627;DHT22;10975;47.872;12.972;2024-02-21T15:31:24;10.90;99.90
21627;DHT22;10975;47.872;12.972;2024-02-21T15:33:52;10.90;99.90
21627;DHT22;10975;47.872;12.972;2024-02-21T15:36:20;10.80;99.90
21627;DHT22;10975;47.872;12.972;2024-02-21T15:38:47;10.80;99.90
21627;DHT22;10975;47.872;12.972;2024-02-21T15:41:14;10.80;99.90
21627;DHT22;10975;47.872;12.972;2024-02-21T15:43:41;10.70;99.90
21627;DHT22;10975;47.872;12.972;2024-02-21T15:46:12;10.70;99.90